sensor_id;sensor_type;location;lat;lon;timestamp;P1;durP1;ratioP1;P2;durP2;ratioP2
19778;SDS011;10049;59.306;18.090;2023-07-09T00:01:48;1.67;;;1.05;;
19778;SDS011;10049;59.306;18.090;2023-07-09T00:04:18;1.02;;;0.90;;
19778;SDS011;10049;59.306;18.090;2023-07-09T00:06:52;1.30;;;0.93;;
19778;SDS011;10049;59.306;18.090;2023-07-09T00:09:21;1.90;;;1.00;;
19778;SDS011;10049;59.306;18.090;2023-07-09T00:11:49;1.15;;;0.90;;
19778;SDS011;10049;59.306;18.090;2023-07-09T00:14:17;0.80;;;0.80;;
19778;SDS011;10049;59.306;18.090;2023-07-09T00:16:44;1.10;;;0.90;;
19778;SDS011;10049;59.306;18.090;2023-07-09T00:19:13;1.08;;;0.90;;
19778;SDS011;10049;59.306;18.090;2023-07-09T00:21:45;1.10;;;0.88;;
19778;SDS011;10049;59.306;18.090;2023-07-09T00:24:22;0.80;;;0.80;;
19778;SDS011;10049;59.306;18.090;2023-07-09T00:26:52;0.70;;;0.70;;
19778;SDS011;10049;59.306;18.090;2023-07-09T00:29:19;0.73;;;0.70;;
19778;SDS011;10049;59.306;18.090;2023-07-09T00:31:48;0.98;;;0.85;;
19778;SDS011;10049;59.306;18.090;2023-07-09T00:34:17;0.80;;;0.80;;
19778;SDS011;10049;59.306;18.090;2023-07-09T00:36:48;0.93;;;0.82;;
19778;SDS011;10049;59.306;18.090;2023-07-09T00:39:16;3.05;;;0.98;;
19778;SDS011;10049;59.306;18.090;2023-07-09T00:41:46;1.38;;;1.10;;
19778;SDS011;10049;59.306;18.090;2023-07-09T00:44:28;0.93;;;0.93;;
19778;SDS011;10049;59.306;18.090;2023-07-09T00:49:43;0.80;;;0.80;;
19778;SDS011;10049;59.306;18.090;2023-07-09T00:52:16;0.95;;;0.90;;
19778;SDS011;10049;59.306;18.090;2023-07-09T00:54:49;1.00;;;0.88;;
19778;SDS011;10049;59.306;18.090;2023-07-09T00:57:24;1.10;;;1.00;;
19778;SDS011;10049;59.306;18.090;2023-07-09T00:59:53;1.55;;;0.93;;
19778;SDS011;10049;59.306;18.090;2023-07-09T01:02:24;1.02;;;0.93;;
19778;SDS011;10049;59.306;18.090;2023-07-09T01:04:53;4.05;;;1.80;;
19778;SDS011;10049;59.306;18.090;2023-07-09T01:07:22;1.35;;;0.80;;
19778;SDS011;10049;59.306;18.090;2023-07-09T01:09:51;6.32;;;0.90;;
19778;SDS011;10049;59.306;18.090;2023-07-09T01:12:20;1.58;;;1.00;;
19778;SDS011;10049;59.306;18.090;2023-07-09T01:14:49;1.73;;;1.10;;
19778;SDS011;10049;59.306;18.090;2023-07-09T01:17:19;1.13;;;1.00;;
19778;SDS011;10049;59.306;18.090;2023-07-09T01:19:48;1.17;;;1.08;;
19778;SDS011;10049;59.306;18.090;2023-07-09T01:22:19;1.08;;;1.00;;
19778;SDS011;10049;59.306;18.090;2023-07-09T01:24:48;0.70;;;0.70;;
19778;SDS011;10049;59.306;18.090;2023-07-09T01:27:17;1.23;;;0.95;;
19778;SDS011;10049;59.306;18.090;2023-07-09T01:29:46;0.90;;;0.90;;
19778;SDS011;10049;59.306;18.090;2023-07-09T01:32:15;1.50;;;0.88;;
19778;SDS011;10049;59.306;18.090;2023-07-09T01:34:44;1.40;;;0.90;;
19778;SDS011;10049;59.306;18.090;2023-07-09T01:37:14;0.93;;;0.90;;
19778;SDS011;10049;59.306;18.090;2023-07-09T01:39:43;0.80;;;0.80;;
19778;SDS011;10049;59.306;18.090;2023-07-09T01:42:13;2.17;;;0.98;;
19778;SDS011;10049;59.306;18.090;2023-07-09T01:44:40;0.70;;;0.70;;
19778;SDS011;10049;59.306;18.090;2023-07-09T01:47:20;2.28;;;0.90;;
19778;SDS011;10049;59.306;18.090;2023-07-09T01:49:49;0.90;;;0.90;;
19778;SDS011;10049;59.306;18.090;2023-07-09T01:52:22;1.17;;;0.80;;
19778;SDS011;10049;59.306;18.090;2023-07-09T01:54:51;0.80;;;0.80;;
19778;SDS011;10049;59.306;18.090;2023-07-09T01:57:20;0.80;;;0.80;;
19778;SDS011;10049;59.306;18.090;2023-07-09T01:59:49;6.63;;;0.98;;
19778;SDS011;10049;59.306;18.090;2023-07-09T02:02:18;1.38;;;0.90;;
19778;SDS011;10049;59.306;18.090;2023-07-09T02:04:46;1.15;;;0.77;;
19778;SDS011;10049;59.306;18.090;2023-07-09T02:07:14;0.90;;;0.77;;
19778;SDS011;10049;59.306;18.090;2023-07-09T02:09:45;0.85;;;0.80;;
19778;SDS011;10049;59.306;18.090;2023-07-09T02:12:17;1.13;;;0.90;;
19778;SDS011;10049;59.306;18.090;2023-07-09T02:14:47;0.95;;;0.93;;
19778;SDS011;10049;59.306;18.090;2023-07-09T02:17:15;2.13;;;0.93;;
19778;SDS011;10049;59.306;18.090;2023-07-09T02:19:43;0.77;;;0.70;;
19778;SDS011;10049;59.306;18.090;2023-07-09T02:22:10;4.25;;;0.80;;
19778;SDS011;10049;59.306;18.090;2023-07-09T02:24:38;2.13;;;0.70;;
19778;SDS011;10049;59.306;18.090;2023-07-09T02:27:09;2.80;;;0.82;;
19778;SDS011;10049;59.306;18.090;2023-07-09T02:29:39;1.00;;;0.80;;
19778;SDS011;10049;59.306;18.090;2023-07-09T02:32:10;1.08;;;0.70;;
19778;SDS011;10049;59.306;18.090;2023-07-09T02:34:42;2.15;;;0.80;;
19778;SDS011;10049;59.306;18.090;2023-07-09T02:37:14;1.95;;;0.93;;
19778;SDS011;10049;59.306;18.090;2023-07-09T02:39:42;2.63;;;0.70;;
19778;SDS011;10049;59.306;18.090;2023-07-09T02:42:12;1.48;;;0.70;;
19778;SDS011;10049;59.306;18.090;2023-07-09T02:44:43;0.80;;;0.80;;
19778;SDS011;10049;59.306;18.090;2023-07-09T02:47:12;0.95;;;0.90;;
19778;SDS011;10049;59.306;18.090;2023-07-09T02:49:44;0.95;;;0.80;;
19778;SDS011;10049;59.306;18.090;2023-07-09T02:52:14;1.85;;;0.80;;
19778;SDS011;10049;59.306;18.090;2023-07-09T02:54:43;1.08;;;0.80;;
19778;SDS011;10049;59.306;18.090;2023-07-09T02:57:11;4.05;;;0.90;;
19778;SDS011;10049;59.306;18.090;2023-07-09T02:59:40;0.70;;;0.70;;
19778;SDS011;10049;59.306;18.090;2023-07-09T03:02:12;3.60;;;0.80;;
19778;SDS011;10049;59.306;18.090;2023-07-09T03:04:40;0.90;;;0.90;;
19778;SDS011;10049;59.306;18.090;2023-07-09T03:07:08;2.63;;;0.88;;
19778;SDS011;10049;59.306;18.090;2023-07-09T03:09:37;1.40;;;0.90;;
19778;SDS011;10049;59.306;18.090;2023-07-09T03:12:05;1.15;;;0.80;;
19778;SDS011;10049;59.306;18.090;2023-07-09T03:14:32;0.82;;;0.82;;
19778;SDS011;10049;59.306;18.090;2023-07-09T03:17:01;3.97;;;0.77;;
19778;SDS011;10049;59.306;18.090;2023-07-09T03:19:30;2.05;;;0.80;;
19778;SDS011;10049;59.306;18.090;2023-07-09T03:21:59;4.90;;;1.00;;
19778;SDS011;10049;59.306;18.090;2023-07-09T03:24:26;0.98;;;0.88;;
19778;SDS011;10049;59.306;18.090;2023-07-09T03:26:59;0.85;;;0.85;;
19778;SDS011;10049;59.306;18.090;2023-07-09T03:29:29;0.95;;;0.93;;
19778;SDS011;10049;59.306;18.090;2023-07-09T03:31:57;1.58;;;1.00;;
19778;SDS011;10049;59.306;18.090;2023-07-09T03:34:25;1.27;;;1.00;;
19778;SDS011;10049;59.306;18.090;2023-07-09T03:36:56;1.10;;;1.00;;
19778;SDS011;10049;59.306;18.090;2023-07-09T03:39:25;1.90;;;1.13;;
19778;SDS011;10049;59.306;18.090;2023-07-09T03:41:55;1.48;;;1.02;;
19778;SDS011;10049;59.306;18.090;2023-07-09T03:44:23;1.02;;;0.98;;
19778;SDS011;10049;59.306;18.090;2023-07-09T03:46:52;0.98;;;0.90;;
19778;SDS011;10049;59.306;18.090;2023-07-09T03:49:21;1.10;;;1.00;;
19778;SDS011;10049;59.306;18.090;2023-07-09T03:51:48;1.58;;;0.80;;
19778;SDS011;10049;59.306;18.090;2023-07-09T03:54:18;1.00;;;0.90;;
19778;SDS011;10049;59.306;18.090;2023-07-09T03:56:49;2.25;;;1.10;;
19778;SDS011;10049;59.306;18.090;2023-07-09T03:59:18;1.05;;;1.00;;
19778;SDS011;10049;59.306;18.090;2023-07-09T04:01:46;1.58;;;1.17;;
19778;SDS011;10049;59.306;18.090;2023-07-09T04:04:14;2.35;;;1.20;;
19778;SDS011;10049;59.306;18.090;2023-07-09T04:06:45;1.02;;;0.93;;
19778;SDS011;10049;59.306;18.090;2023-07-09T04:09:13;1.00;;;1.00;;
19778;SDS011;10049;59.306;18.090;2023-07-09T04:11:43;3.63;;;1.05;;
19778;SDS011;10049;59.306;18.090;2023-07-09T04:14:11;1.27;;;1.10;;
19778;SDS011;10049;59.306;18.090;2023-07-09T04:16:38;1.55;;;1.13;;
19778;SDS011;10049;59.306;18.090;2023-07-09T04:19:07;1.35;;;1.15;;
19778;SDS011;10049;59.306;18.090;2023-07-09T04:21:39;1.05;;;1.05;;
19778;SDS011;10049;59.306;18.090;2023-07-09T04:24:09;2.63;;;1.05;;
19778;SDS011;10049;59.306;18.090;2023-07-09T04:26:39;0.93;;;0.90;;
19778;SDS011;10049;59.306;18.090;2023-07-09T04:29:09;1.50;;;1.00;;
19778;SDS011;10049;59.306;18.090;2023-07-09T04:31:38;1.77;;;1.30;;
19778;SDS011;10049;59.306;18.090;2023-07-09T04:34:08;2.22;;;1.60;;
19778;SDS011;10049;59.306;18.090;2023-07-09T04:36:37;1.40;;;1.30;;
19778;SDS011;10049;59.306;18.090;2023-07-09T04:39:04;1.58;;;1.30;;
19778;SDS011;10049;59.306;18.090;2023-07-09T04:41:33;1.70;;;1.30;;
19778;SDS011;10049;59.306;18.090;2023-07-09T04:44:01;1.00;;;1.00;;
19778;SDS011;10049;59.306;18.090;2023-07-09T04:46:30;1.40;;;0.90;;
19778;SDS011;10049;59.306;18.090;2023-07-09T04:48:59;0.95;;;0.95;;
19778;SDS011;10049;59.306;18.090;2023-07-09T04:51:30;2.53;;;0.80;;
19778;SDS011;10049;59.306;18.090;2023-07-09T04:53:57;1.00;;;1.00;;
19778;SDS011;10049;59.306;18.090;2023-07-09T04:56:28;0.95;;;0.95;;
19778;SDS011;10049;59.306;18.090;2023-07-09T04:58:56;1.83;;;1.00;;
19778;SDS011;10049;59.306;18.090;2023-07-09T05:01:23;1.45;;;1.00;;
19778;SDS011;10049;59.306;18.090;2023-07-09T05:03:52;1.20;;;1.10;;
19778;SDS011;10049;59.306;18.090;2023-07-09T05:06:21;1.30;;;1.08;;
19778;SDS011;10049;59.306;18.090;2023-07-09T05:08:50;1.00;;;0.90;;
19778;SDS011;10049;59.306;18.090;2023-07-09T05:11:18;1.00;;;0.82;;
19778;SDS011;10049;59.306;18.090;2023-07-09T05:13:47;1.10;;;1.00;;
19778;SDS011;10049;59.306;18.090;2023-07-09T05:16:14;0.98;;;0.98;;
19778;SDS011;10049;59.306;18.090;2023-07-09T05:18:42;1.17;;;1.00;;
19778;SDS011;10049;59.306;18.090;2023-07-09T05:21:12;1.10;;;1.00;;
19778;SDS011;10049;59.306;18.090;2023-07-09T05:23:45;1.48;;;1.08;;
19778;SDS011;10049;59.306;18.090;2023-07-09T05:26:13;1.23;;;1.10;;
19778;SDS011;10049;59.306;18.090;2023-07-09T05:28:42;2.35;;;1.70;;
19778;SDS011;10049;59.306;18.090;2023-07-09T05:31:09;1.52;;;1.40;;
19778;SDS011;10049;59.306;18.090;2023-07-09T05:33:37;1.33;;;1.00;;
19778;SDS011;10049;59.306;18.090;2023-07-09T05:36:05;1.75;;;1.00;;
19778;SDS011;10049;59.306;18.090;2023-07-09T05:38:40;1.63;;;1.10;;
19778;SDS011;10049;59.306;18.090;2023-07-09T05:41:09;1.85;;;1.13;;
19778;SDS011;10049;59.306;18.090;2023-07-09T05:43:37;2.75;;;1.00;;
19778;SDS011;10049;59.306;18.090;2023-07-09T05:46:05;0.80;;;0.80;;
19778;SDS011;10049;59.306;18.090;2023-07-09T05:48:33;0.98;;;0.98;;
19778;SDS011;10049;59.306;18.090;2023-07-09T05:51:01;1.50;;;1.10;;
19778;SDS011;10049;59.306;18.090;2023-07-09T05:53:29;1.88;;;1.00;;
19778;SDS011;10049;59.306;18.090;2023-07-09T05:56:00;1.10;;;1.00;;
19778;SDS011;10049;59.306;18.090;2023-07-09T05:58:28;1.40;;;1.10;;
19778;SDS011;10049;59.306;18.090;2023-07-09T06:00:57;0.90;;;0.90;;
19778;SDS011;10049;59.306;18.090;2023-07-09T06:03:26;0.98;;;0.90;;
19778;SDS011;10049;59.306;18.090;2023-07-09T06:06:00;1.00;;;1.00;;
19778;SDS011;10049;59.306;18.090;2023-07-09T06:08:27;1.23;;;1.00;;
19778;SDS011;10049;59.306;18.090;2023-07-09T06:10:56;1.30;;;1.20;;
19778;SDS011;10049;59.306;18.090;2023-07-09T06:13:26;1.10;;;1.00;;
19778;SDS011;10049;59.306;18.090;2023-07-09T06:15:56;1.30;;;1.20;;
19778;SDS011;10049;59.306;18.090;2023-07-09T06:18:25;1.30;;;1.20;;
19778;SDS011;10049;59.306;18.090;2023-07-09T06:20:55;1.17;;;1.00;;
19778;SDS011;10049;59.306;18.090;2023-07-09T06:23:24;1.67;;;1.13;;
19778;SDS011;10049;59.306;18.090;2023-07-09T06:25:54;2.63;;;1.30;;
19778;SDS011;10049;59.306;18.090;2023-07-09T06:28:22;1.23;;;1.13;;
19778;SDS011;10049;59.306;18.090;2023-07-09T06:30:51;1.05;;;1.00;;
19778;SDS011;10049;59.306;18.090;2023-07-09T06:33:28;1.50;;;1.00;;
19778;SDS011;10049;59.306;18.090;2023-07-09T06:35:57;1.23;;;1.10;;
19778;SDS011;10049;59.306;18.090;2023-07-09T06:38:26;1.52;;;1.13;;
19778;SDS011;10049;59.306;18.090;2023-07-09T06:40:55;0.95;;;0.90;;
19778;SDS011;10049;59.306;18.090;2023-07-09T06:43:23;1.10;;;1.00;;
19778;SDS011;10049;59.306;18.090;2023-07-09T06:45:54;0.85;;;0.82;;
19778;SDS011;10049;59.306;18.090;2023-07-09T06:48:24;0.95;;;0.90;;
19778;SDS011;10049;59.306;18.090;2023-07-09T06:50:52;3.38;;;0.90;;
19778;SDS011;10049;59.306;18.090;2023-07-09T06:53:20;1.67;;;1.10;;
19778;SDS011;10049;59.306;18.090;2023-07-09T06:55:48;0.85;;;0.80;;
19778;SDS011;10049;59.306;18.090;2023-07-09T06:58:20;1.67;;;0.80;;
19778;SDS011;10049;59.306;18.090;2023-07-09T07:00:53;1.15;;;0.85;;
19778;SDS011;10049;59.306;18.090;2023-07-09T07:03:24;0.80;;;0.80;;
19778;SDS011;10049;59.306;18.090;2023-07-09T07:05:53;0.98;;;0.80;;
19778;SDS011;10049;59.306;18.090;2023-07-09T07:08:26;2.03;;;0.90;;
19778;SDS011;10049;59.306;18.090;2023-07-09T07:10:55;0.75;;;0.75;;
19778;SDS011;10049;59.306;18.090;2023-07-09T07:13:29;1.35;;;1.10;;
19778;SDS011;10049;59.306;18.090;2023-07-09T07:15:58;1.27;;;1.00;;
19778;SDS011;10049;59.306;18.090;2023-07-09T07:18:27;1.42;;;0.90;;
19778;SDS011;10049;59.306;18.090;2023-07-09T07:20:54;1.05;;;0.73;;
19778;SDS011;10049;59.306;18.090;2023-07-09T07:23:26;1.30;;;1.20;;
19778;SDS011;10049;59.306;18.090;2023-07-09T07:25:55;0.70;;;0.70;;
19778;SDS011;10049;59.306;18.090;2023-07-09T07:28:23;1.42;;;0.75;;
19778;SDS011;10049;59.306;18.090;2023-07-09T07:30:59;1.15;;;1.10;;
19778;SDS011;10049;59.306;18.090;2023-07-09T07:33:27;0.80;;;0.80;;
19778;SDS011;10049;59.306;18.090;2023-07-09T07:35:55;1.63;;;0.90;;
19778;SDS011;10049;59.306;18.090;2023-07-09T07:38:22;0.70;;;0.65;;
19778;SDS011;10049;59.306;18.090;2023-07-09T07:40:51;0.60;;;0.60;;
19778;SDS011;10049;59.306;18.090;2023-07-09T07:43:19;0.60;;;0.60;;
19778;SDS011;10049;59.306;18.090;2023-07-09T07:45:47;0.80;;;0.80;;
19778;SDS011;10049;59.306;18.090;2023-07-09T07:48:18;0.80;;;0.80;;
19778;SDS011;10049;59.306;18.090;2023-07-09T07:50:45;0.90;;;0.90;;
19778;SDS011;10049;59.306;18.090;2023-07-09T07:53:13;0.70;;;0.70;;
19778;SDS011;10049;59.306;18.090;2023-07-09T07:55:41;0.95;;;0.82;;
19778;SDS011;10049;59.306;18.090;2023-07-09T07:58:12;0.80;;;0.70;;
19778;SDS011;10049;59.306;18.090;2023-07-09T08:00:42;0.95;;;0.70;;
19778;SDS011;10049;59.306;18.090;2023-07-09T08:03:10;1.08;;;0.70;;
19778;SDS011;10049;59.306;18.090;2023-07-09T08:05:40;1.15;;;0.80;;
19778;SDS011;10049;59.306;18.090;2023-07-09T08:08:08;0.80;;;0.80;;
19778;SDS011;10049;59.306;18.090;2023-07-09T08:10:37;0.93;;;0.70;;
19778;SDS011;10049;59.306;18.090;2023-07-09T08:13:05;1.15;;;0.50;;
19778;SDS011;10049;59.306;18.090;2023-07-09T08:15:32;0.75;;;0.70;;
19778;SDS011;10049;59.306;18.090;2023-07-09T08:18:00;2.30;;;1.00;;
19778;SDS011;10049;59.306;18.090;2023-07-09T08:20:28;1.38;;;0.70;;
19778;SDS011;10049;59.306;18.090;2023-07-09T08:23:00;0.60;;;0.60;;
19778;SDS011;10049;59.306;18.090;2023-07-09T08:25:29;0.73;;;0.60;;
19778;SDS011;10049;59.306;18.090;2023-07-09T08:27:56;0.60;;;0.60;;
19778;SDS011;10049;59.306;18.090;2023-07-09T08:30:24;0.70;;;0.70;;
19778;SDS011;10049;59.306;18.090;2023-07-09T08:32:52;0.68;;;0.63;;
19778;SDS011;10049;59.306;18.090;2023-07-09T08:35:20;1.35;;;0.55;;
19778;SDS011;10049;59.306;18.090;2023-07-09T08:37:50;0.60;;;0.60;;
19778;SDS011;10049;59.306;18.090;2023-07-09T08:40:21;1.17;;;0.80;;
19778;SDS011;10049;59.306;18.090;2023-07-09T08:42:50;1.00;;;0.60;;
19778;SDS011;10049;59.306;18.090;2023-07-09T08:45:24;2.88;;;0.70;;
19778;SDS011;10049;59.306;18.090;2023-07-09T08:47:57;0.65;;;0.65;;
19778;SDS011;10049;59.306;18.090;2023-07-09T08:50:28;0.77;;;0.70;;
19778;SDS011;10049;59.306;18.090;2023-07-09T08:52:59;0.88;;;0.88;;
19778;SDS011;10049;59.306;18.090;2023-07-09T08:55:30;1.92;;;1.00;;
19778;SDS011;10049;59.306;18.090;2023-07-09T08:58:09;1.15;;;0.80;;
19778;SDS011;10049;59.306;18.090;2023-07-09T09:00:43;1.33;;;0.70;;
19778;SDS011;10049;59.306;18.090;2023-07-09T09:03:14;0.60;;;0.60;;
19778;SDS011;10049;59.306;18.090;2023-07-09T09:05:45;0.70;;;0.70;;
19778;SDS011;10049;59.306;18.090;2023-07-09T09:08:17;0.60;;;0.60;;
19778;SDS011;10049;59.306;18.090;2023-07-09T09:10:48;2.28;;;0.88;;
19778;SDS011;10049;59.306;18.090;2023-07-09T09:13:24;1.10;;;0.80;;
19778;SDS011;10049;59.306;18.090;2023-07-09T09:15:52;0.70;;;0.70;;
19778;SDS011;10049;59.306;18.090;2023-07-09T09:18:22;0.70;;;0.70;;
19778;SDS011;10049;59.306;18.090;2023-07-09T09:20:55;0.80;;;0.80;;
19778;SDS011;10049;59.306;18.090;2023-07-09T09:23:36;2.03;;;0.80;;
19778;SDS011;10049;59.306;18.090;2023-07-09T09:26:16;1.05;;;0.90;;
19778;SDS011;10049;59.306;18.090;2023-07-09T09:28:45;1.35;;;0.65;;
19778;SDS011;10049;59.306;18.090;2023-07-09T09:31:12;0.73;;;0.73;;
19778;SDS011;10049;59.306;18.090;2023-07-09T09:33:45;1.33;;;0.70;;
19778;SDS011;10049;59.306;18.090;2023-07-09T09:36:15;0.70;;;0.70;;
19778;SDS011;10049;59.306;18.090;2023-07-09T09:38:43;0.63;;;0.63;;
19778;SDS011;10049;59.306;18.090;2023-07-09T09:41:14;0.88;;;0.70;;
19778;SDS011;10049;59.306;18.090;2023-07-09T09:43:43;0.88;;;0.70;;
19778;SDS011;10049;59.306;18.090;2023-07-09T09:46:16;0.70;;;0.70;;
19778;SDS011;10049;59.306;18.090;2023-07-09T09:48:44;2.60;;;0.73;;
19778;SDS011;10049;59.306;18.090;2023-07-09T09:51:12;0.70;;;0.70;;
19778;SDS011;10049;59.306;18.090;2023-07-09T09:53:40;0.85;;;0.80;;
19778;SDS011;10049;59.306;18.090;2023-07-09T09:56:11;0.70;;;0.70;;
19778;SDS011;10049;59.306;18.090;2023-07-09T09:58:55;0.70;;;0.70;;
19778;SDS011;10049;59.306;18.090;2023-07-09T10:01:26;1.70;;;0.77;;
19778;SDS011;10049;59.306;18.090;2023-07-09T10:03:56;0.70;;;0.70;;
19778;SDS011;10049;59.306;18.090;2023-07-09T10:06:27;0.60;;;0.60;;
19778;SDS011;10049;59.306;18.090;2023-07-09T10:08:56;0.70;;;0.70;;
19778;SDS011;10049;59.306;18.090;2023-07-09T10:11:29;0.60;;;0.60;;
19778;SDS011;10049;59.306;18.090;2023-07-09T10:14:04;0.70;;;0.70;;
19778;SDS011;10049;59.306;18.090;2023-07-09T10:16:37;1.40;;;0.60;;
19778;SDS011;10049;59.306;18.090;2023-07-09T10:19:09;0.70;;;0.70;;
19778;SDS011;10049;59.306;18.090;2023-07-09T10:21:41;0.70;;;0.70;;
19778;SDS011;10049;59.306;18.090;2023-07-09T10:24:19;0.68;;;0.68;;
19778;SDS011;10049;59.306;18.090;2023-07-09T10:26:51;0.70;;;0.70;;
19778;SDS011;10049;59.306;18.090;2023-07-09T10:29:27;1.10;;;1.00;;
19778;SDS011;10049;59.306;18.090;2023-07-09T10:32:04;1.77;;;1.00;;
19778;SDS011;10049;59.306;18.090;2023-07-09T10:34:39;1.30;;;0.80;;
19778;SDS011;10049;59.306;18.090;2023-07-09T10:37:21;1.33;;;0.80;;
19778;SDS011;10049;59.306;18.090;2023-07-09T10:39:53;0.93;;;0.70;;
19778;SDS011;10049;59.306;18.090;2023-07-09T10:42:25;0.70;;;0.70;;
19778;SDS011;10049;59.306;18.090;2023-07-09T10:44:55;0.50;;;0.50;;
19778;SDS011;10049;59.306;18.090;2023-07-09T10:47:26;0.70;;;0.70;;
19778;SDS011;10049;59.306;18.090;2023-07-09T10:49:54;0.47;;;0.47;;
19778;SDS011;10049;59.306;18.090;2023-07-09T10:52:25;0.52;;;0.52;;
19778;SDS011;10049;59.306;18.090;2023-07-09T10:54:56;0.60;;;0.60;;
19778;SDS011;10049;59.306;18.090;2023-07-09T10:57:28;0.88;;;0.85;;
19778;SDS011;10049;59.306;18.090;2023-07-09T10:59:57;1.67;;;0.57;;
19778;SDS011;10049;59.306;18.090;2023-07-09T11:02:26;0.70;;;0.70;;
19778;SDS011;10049;59.306;18.090;2023-07-09T11:04:55;0.68;;;0.68;;
19778;SDS011;10049;59.306;18.090;2023-07-09T11:07:26;0.50;;;0.50;;
19778;SDS011;10049;59.306;18.090;2023-07-09T11:09:55;0.50;;;0.50;;
19778;SDS011;10049;59.306;18.090;2023-07-09T11:12:27;0.60;;;0.60;;
19778;SDS011;10049;59.306;18.090;2023-07-09T11:15:08;0.70;;;0.70;;
19778;SDS011;10049;59.306;18.090;2023-07-09T11:17:39;0.65;;;0.65;;
19778;SDS011;10049;59.306;18.090;2023-07-09T11:20:16;0.77;;;0.77;;
19778;SDS011;10049;59.306;18.090;2023-07-09T11:22:52;0.60;;;0.60;;
19778;SDS011;10049;59.306;18.090;2023-07-09T11:25:30;1.08;;;0.88;;
19778;SDS011;10049;59.306;18.090;2023-07-09T11:28:03;0.60;;;0.60;;
19778;SDS011;10049;59.306;18.090;2023-07-09T11:30:44;0.68;;;0.68;;
19778;SDS011;10049;59.306;18.090;2023-07-09T11:33:18;1.33;;;0.70;;
19778;SDS011;10049;59.306;18.090;2023-07-09T11:35:48;0.60;;;0.60;;
19778;SDS011;10049;59.306;18.090;2023-07-09T11:38:18;0.60;;;0.60;;
19778;SDS011;10049;59.306;18.090;2023-07-09T11:40:50;0.85;;;0.70;;
19778;SDS011;10049;59.306;18.090;2023-07-09T11:43:29;0.75;;;0.57;;
19778;SDS011;10049;59.306;18.090;2023-07-09T11:46:00;0.60;;;0.60;;
19778;SDS011;10049;59.306;18.090;2023-07-09T11:48:30;0.60;;;0.60;;
19778;SDS011;10049;59.306;18.090;2023-07-09T11:51:00;1.17;;;0.57;;
19778;SDS011;10049;59.306;18.090;2023-07-09T11:53:31;1.17;;;0.70;;
19778;SDS011;10049;59.306;18.090;2023-07-09T11:56:02;0.55;;;0.50;;
19778;SDS011;10049;59.306;18.090;2023-07-09T11:58:31;0.22;;;0.22;;
19778;SDS011;10049;59.306;18.090;2023-07-09T12:01:13;1.25;;;0.60;;
19778;SDS011;10049;59.306;18.090;2023-07-09T12:03:45;1.08;;;0.65;;
19778;SDS011;10049;59.306;18.090;2023-07-09T12:06:16;0.73;;;0.60;;
19778;SDS011;10049;59.306;18.090;2023-07-09T12:08:47;0.60;;;0.60;;
19778;SDS011;10049;59.306;18.090;2023-07-09T12:11:19;1.20;;;0.45;;
19778;SDS011;10049;59.306;18.090;2023-07-09T12:13:47;0.50;;;0.47;;
19778;SDS011;10049;59.306;18.090;2023-07-09T12:16:36;3.30;;;0.47;;
19778;SDS011;10049;59.306;18.090;2023-07-09T12:19:04;0.45;;;0.45;;
19778;SDS011;10049;59.306;18.090;2023-07-09T12:21:34;0.75;;;0.60;;
19778;SDS011;10049;59.306;18.090;2023-07-09T12:24:12;0.60;;;0.50;;
19778;SDS011;10049;59.306;18.090;2023-07-09T12:26:46;0.65;;;0.60;;
19778;SDS011;10049;59.306;18.090;2023-07-09T12:29:14;0.70;;;0.50;;
19778;SDS011;10049;59.306;18.090;2023-07-09T12:31:44;0.50;;;0.50;;
19778;SDS011;10049;59.306;18.090;2023-07-09T12:34:12;0.60;;;0.60;;
19778;SDS011;10049;59.306;18.090;2023-07-09T12:36:43;0.98;;;0.57;;
19778;SDS011;10049;59.306;18.090;2023-07-09T12:39:12;0.50;;;0.50;;
19778;SDS011;10049;59.306;18.090;2023-07-09T12:41:40;0.50;;;0.50;;
19778;SDS011;10049;59.306;18.090;2023-07-09T12:44:13;0.50;;;0.50;;
19778;SDS011;10049;59.306;18.090;2023-07-09T12:46:42;0.40;;;0.40;;
19778;SDS011;10049;59.306;18.090;2023-07-09T12:49:14;0.75;;;0.50;;
19778;SDS011;10049;59.306;18.090;2023-07-09T12:51:53;0.60;;;0.60;;
19778;SDS011;10049;59.306;18.090;2023-07-09T12:54:23;0.50;;;0.50;;
19778;SDS011;10049;59.306;18.090;2023-07-09T12:56:51;0.60;;;0.60;;
19778;SDS011;10049;59.306;18.090;2023-07-09T12:59:22;2.45;;;0.50;;
19778;SDS011;10049;59.306;18.090;2023-07-09T13:01:54;0.60;;;0.50;;
19778;SDS011;10049;59.306;18.090;2023-07-09T13:04:29;0.40;;;0.40;;
19778;SDS011;10049;59.306;18.090;2023-07-09T13:06:57;0.60;;;0.50;;
19778;SDS011;10049;59.306;18.090;2023-07-09T13:09:25;2.53;;;0.50;;
19778;SDS011;10049;59.306;18.090;2023-07-09T13:11:58;0.93;;;0.47;;
19778;SDS011;10049;59.306;18.090;2023-07-09T13:14:29;0.82;;;0.50;;
19778;SDS011;10049;59.306;18.090;2023-07-09T13:17:08;1.50;;;0.77;;
19778;SDS011;10049;59.306;18.090;2023-07-09T13:19:38;1.00;;;0.77;;
19778;SDS011;10049;59.306;18.090;2023-07-09T13:22:10;0.70;;;0.70;;
19778;SDS011;10049;59.306;18.090;2023-07-09T13:24:42;0.75;;;0.70;;
19778;SDS011;10049;59.306;18.090;2023-07-09T13:27:10;2.42;;;0.70;;
19778;SDS011;10049;59.306;18.090;2023-07-09T13:29:39;1.33;;;0.70;;
19778;SDS011;10049;59.306;18.090;2023-07-09T13:32:08;0.80;;;0.80;;
19778;SDS011;10049;59.306;18.090;2023-07-09T13:34:46;1.13;;;0.73;;
19778;SDS011;10049;59.306;18.090;2023-07-09T13:37:14;0.70;;;0.68;;
19778;SDS011;10049;59.306;18.090;2023-07-09T13:39:42;0.77;;;0.77;;
19778;SDS011;10049;59.306;18.090;2023-07-09T13:42:11;0.75;;;0.70;;
19778;SDS011;10049;59.306;18.090;2023-07-09T13:44:40;1.98;;;0.70;;
19778;SDS011;10049;59.306;18.090;2023-07-09T13:47:10;0.70;;;0.70;;
19778;SDS011;10049;59.306;18.090;2023-07-09T13:49:42;0.70;;;0.70;;
19778;SDS011;10049;59.306;18.090;2023-07-09T13:52:15;1.10;;;0.77;;
19778;SDS011;10049;59.306;18.090;2023-07-09T13:54:48;0.70;;;0.70;;
19778;SDS011;10049;59.306;18.090;2023-07-09T13:57:18;0.88;;;0.80;;
19778;SDS011;10049;59.306;18.090;2023-07-09T13:59:46;0.70;;;0.70;;
19778;SDS011;10049;59.306;18.090;2023-07-09T14:02:20;2.35;;;0.80;;
19778;SDS011;10049;59.306;18.090;2023-07-09T14:04:50;2.38;;;0.70;;
19778;SDS011;10049;59.306;18.090;2023-07-09T14:07:22;0.65;;;0.60;;
19778;SDS011;10049;59.306;18.090;2023-07-09T14:09:51;0.70;;;0.70;;
19778;SDS011;10049;59.306;18.090;2023-07-09T14:12:21;0.60;;;0.60;;
19778;SDS011;10049;59.306;18.090;2023-07-09T14:14:50;0.68;;;0.68;;
19778;SDS011;10049;59.306;18.090;2023-07-09T14:17:18;1.13;;;0.65;;
19778;SDS011;10049;59.306;18.090;2023-07-09T14:19:47;1.08;;;0.70;;
19778;SDS011;10049;59.306;18.090;2023-07-09T14:22:25;1.10;;;0.68;;
19778;SDS011;10049;59.306;18.090;2023-07-09T14:24:56;1.08;;;0.70;;
19778;SDS011;10049;59.306;18.090;2023-07-09T14:27:26;0.70;;;0.70;;
19778;SDS011;10049;59.306;18.090;2023-07-09T14:29:54;0.90;;;0.80;;
19778;SDS011;10049;59.306;18.090;2023-07-09T14:32:28;1.25;;;0.63;;
19778;SDS011;10049;59.306;18.090;2023-07-09T14:34:57;0.70;;;0.70;;
19778;SDS011;10049;59.306;18.090;2023-07-09T14:37:26;0.80;;;0.80;;
19778;SDS011;10049;59.306;18.090;2023-07-09T14:39:54;1.30;;;0.60;;
19778;SDS011;10049;59.306;18.090;2023-07-09T14:42:22;0.60;;;0.60;;
19778;SDS011;10049;59.306;18.090;2023-07-09T14:44:50;1.20;;;0.80;;
19778;SDS011;10049;59.306;18.090;2023-07-09T14:47:20;2.03;;;0.70;;
19778;SDS011;10049;59.306;18.090;2023-07-09T14:49:49;0.75;;;0.60;;
19778;SDS011;10049;59.306;18.090;2023-07-09T14:52:19;0.60;;;0.60;;
19778;SDS011;10049;59.306;18.090;2023-07-09T14:54:50;2.58;;;0.60;;